createdAt,value
2022-12-18T00:01:20.932Z,19.30
2022-12-18T00:03:48.597Z,19.29
2022-12-18T00:06:16.613Z,19.30
2022-12-18T00:08:45.635Z,19.36
2022-12-18T00:11:18.581Z,19.46
2022-12-18T00:13:46.099Z,19.56
2022-12-18T00:16:22.188Z,19.57
2022-12-18T00:18:50.857Z,19.55
2022-12-18T00:21:18.420Z,19.52
2022-12-18T00:23:47.119Z,19.49
2022-12-18T00:26:17.531Z,19.52
2022-12-18T00:28:45.780Z,19.53
2022-12-18T00:31:15.733Z,19.53
2022-12-18T00:33:43.509Z,19.50
2022-12-18T00:36:13.373Z,19.50
2022-12-18T00:38:40.504Z,19.50
2022-12-18T00:41:09.242Z,19.52
2022-12-18T00:43:37.399Z,19.50
2022-12-18T00:46:04.833Z,19.49
2022-12-18T00:48:32.543Z,19.52
2022-12-18T00:50:59.958Z,19.54
2022-12-18T00:53:26.984Z,19.56
2022-12-18T00:55:54.007Z,19.58
2022-12-18T00:58:21.135Z,19.60
2022-12-18T01:00:48.434Z,19.64
2022-12-18T01:03:15.955Z,19.69
2022-12-18T01:05:43.485Z,19.70
2022-12-18T01:08:10.697Z,19.71
2022-12-18T01:10:37.833Z,19.71
2022-12-18T01:13:04.932Z,19.77
2022-12-18T01:15:32.145Z,19.81
2022-12-18T01:17:59.154Z,19.78
2022-12-18T01:20:26.208Z,19.76
2022-12-18T01:22:53.251Z,19.75
2022-12-18T01:25:20.321Z,19.77
2022-12-18T01:27:47.422Z,19.73
2022-12-18T01:30:14.539Z,19.71
2022-12-18T01:32:41.634Z,19.66
2022-12-18T01:35:09.272Z,19.63
2022-12-18T01:37:36.297Z,19.60
2022-12-18T01:40:03.477Z,19.58
2022-12-18T01:42:30.626Z,19.55
2022-12-18T01:45:12.721Z,19.54
2022-12-18T01:47:41.735Z,19.51
2022-12-18T01:50:19.632Z,19.44
2022-12-18T01:52:50.559Z,19.39
2022-12-18T01:55:22.142Z,19.34
2022-12-18T01:57:50.912Z,19.30
2022-12-18T02:00:20.686Z,19.30
2022-12-18T02:02:48.500Z,19.28
2022-12-18T02:05:19.784Z,19.28
2022-12-18T02:08:09.891Z,19.27
2022-12-18T02:10:56.377Z,19.29
2022-12-18T02:13:35.676Z,19.24
2022-12-18T02:16:36.199Z,19.24
2022-12-18T02:19:14.776Z,19.19
2022-12-18T02:22:04.977Z,19.17
2022-12-18T02:24:46.402Z,19.16
2022-12-18T02:27:14.587Z,19.12
2022-12-18T02:29:58.642Z,19.11
2022-12-18T02:32:29.970Z,19.15
2022-12-18T02:34:58.557Z,19.19
2022-12-18T02:37:28.476Z,19.25
2022-12-18T02:39:58.655Z,19.27
2022-12-18T02:42:26.494Z,19.26
2022-12-18T02:44:58.715Z,19.25
2022-12-18T02:47:31.306Z,19.24
2022-12-18T02:50:01.318Z,19.23
2022-12-18T02:52:42.915Z,19.23
2022-12-18T02:55:36.523Z,19.20
2022-12-18T02:58:30.689Z,19.16
2022-12-18T03:01:27.310Z,19.13
2022-12-18T03:04:02.676Z,19.12
2022-12-18T03:06:33.969Z,19.13
2022-12-18T03:09:08.906Z,19.12
2022-12-18T03:11:59.381Z,19.09
2022-12-18T03:14:30.282Z,19.08
2022-12-18T03:17:02.285Z,19.09
2022-12-18T03:19:33.239Z,19.08
2022-12-18T03:22:03.183Z,19.08
2022-12-18T03:24:32.701Z,19.08
2022-12-18T03:27:03.876Z,19.09
2022-12-18T03:29:54.923Z,19.08
2022-12-18T03:32:34.561Z,19.13
2022-12-18T03:35:06.020Z,19.16
2022-12-18T03:37:33.798Z,19.21
2022-12-18T03:40:01.076Z,19.23
2022-12-18T03:42:38.842Z,19.18
2022-12-18T03:45:12.550Z,19.15
2022-12-18T03:47:50.004Z,19.12
2022-12-18T03:50:35.777Z,19.10
2022-12-18T03:53:30.957Z,19.12
2022-12-18T03:56:00.589Z,19.10
2022-12-18T03:58:30.139Z,19.11
2022-12-18T04:01:01.540Z,19.10
2022-12-18T04:03:30.900Z,19.17
2022-12-18T04:06:00.408Z,19.23
2022-12-18T04:08:28.081Z,19.28
2022-12-18T04:10:55.181Z,19.29
2022-12-18T04:13:29.316Z,19.31
2022-12-18T04:15:56.565Z,19.32
2022-12-18T04:18:23.663Z,19.34
2022-12-18T04:20:51.047Z,19.36
2022-12-18T04:23:18.087Z,19.39
2022-12-18T04:25:45.114Z,19.40
2022-12-18T04:28:12.237Z,19.40
2022-12-18T04:30:39.374Z,19.38
2022-12-18T04:33:11.258Z,19.39
2022-12-18T04:35:38.470Z,19.38
2022-12-18T04:38:07.978Z,19.36
2022-12-18T04:40:36.623Z,19.38
2022-12-18T04:43:04.454Z,19.40
2022-12-18T04:45:32.813Z,19.40
2022-12-18T04:48:01.502Z,19.38
2022-12-18T04:50:28.722Z,19.34
2022-12-18T04:52:57.321Z,19.28
2022-12-18T04:55:24.428Z,19.25
2022-12-18T04:57:51.482Z,19.23
2022-12-18T05:00:18.669Z,19.20
2022-12-18T05:02:45.884Z,19.18
2022-12-18T05:05:13.110Z,19.19
2022-12-18T05:07:40.155Z,19.18
2022-12-18T05:10:09.051Z,19.17
2022-12-18T05:12:57.427Z,19.16
2022-12-18T05:15:24.495Z,19.15
2022-12-18T05:17:51.488Z,19.12
2022-12-18T05:20:19.478Z,19.15
2022-12-18T05:22:46.606Z,19.17
2022-12-18T05:25:13.766Z,19.15
2022-12-18T05:27:40.778Z,19.11
2022-12-18T05:30:09.030Z,19.06
2022-12-18T05:32:36.103Z,19.02
2022-12-18T05:35:03.261Z,18.99
2022-12-18T05:37:30.357Z,18.98
2022-12-18T05:39:57.341Z,18.96
2022-12-18T05:42:24.649Z,18.95
2022-12-18T05:44:51.862Z,18.94
2022-12-18T05:47:18.981Z,18.93
2022-12-18T05:49:46.039Z,18.92
2022-12-18T05:52:13.205Z,18.95
2022-12-18T05:54:40.860Z,18.93
2022-12-18T05:57:07.883Z,18.92
2022-12-18T05:59:35.221Z,18.92
2022-12-18T06:02:02.380Z,18.92
2022-12-18T06:04:30.065Z,18.91
2022-12-18T06:06:57.325Z,18.92
2022-12-18T06:09:24.529Z,18.91
2022-12-18T06:11:53.165Z,18.91
2022-12-18T06:14:20.437Z,18.89
2022-12-18T06:16:47.442Z,18.86
2022-12-18T06:19:17.323Z,18.89
2022-12-18T06:21:44.775Z,18.92
2022-12-18T06:24:11.764Z,18.91
2022-12-18T06:26:40.243Z,18.88
2022-12-18T06:29:07.476Z,18.89
2022-12-18T06:31:34.649Z,18.89
2022-12-18T06:34:04.388Z,18.93
2022-12-18T06:36:32.382Z,18.97
2022-12-18T06:38:59.740Z,18.99
2022-12-18T06:41:26.829Z,18.98
2022-12-18T06:43:59.395Z,19.00
2022-12-18T06:46:26.991Z,18.99
2022-12-18T06:48:54.017Z,18.97
2022-12-18T06:51:23.247Z,18.95
2022-12-18T06:53:51.070Z,18.96
2022-12-18T06:56:18.352Z,18.96
2022-12-18T06:58:45.647Z,18.97
2022-12-18T07:01:13.344Z,18.96
2022-12-18T07:03:44.194Z,18.97
2022-12-18T07:06:19.480Z,18.97
2022-12-18T07:08:47.550Z,18.96
2022-12-18T07:11:15.213Z,19.00
2022-12-18T07:13:42.821Z,19.01
2022-12-18T07:16:18.360Z,19.01
2022-12-18T07:18:49.670Z,19.03
2022-12-18T07:21:19.148Z,19.02
2022-12-18T07:23:49.374Z,19.05
2022-12-18T07:26:19.744Z,19.07
2022-12-18T07:28:47.063Z,19.06
2022-12-18T07:31:16.903Z,19.05
2022-12-18T07:33:44.663Z,19.02
2022-12-18T07:36:12.048Z,19.02
2022-12-18T07:38:39.723Z,19.01
2022-12-18T07:41:12.756Z,19.01
2022-12-18T07:43:41.005Z,19.02
2022-12-18T07:46:10.577Z,19.05
2022-12-18T07:48:39.370Z,19.04
2022-12-18T07:51:07.818Z,19.06
2022-12-18T07:53:36.141Z,19.03
2022-12-18T07:56:26.571Z,19.00
2022-12-18T07:58:53.627Z,19.00
2022-12-18T08:01:21.333Z,18.98
2022-12-18T08:03:48.683Z,18.96
2022-12-18T08:06:17.682Z,18.97
2022-12-18T08:08:44.678Z,18.98
2022-12-18T08:11:11.795Z,18.95
2022-12-18T08:13:39.120Z,18.95
2022-12-18T08:16:08.238Z,18.96
2022-12-18T08:18:37.279Z,18.98
2022-12-18T08:21:16.235Z,19.02
2022-12-18T08:23:44.021Z,19.03
2022-12-18T08:26:14.151Z,19.06
2022-12-18T08:28:41.945Z,19.08
2022-12-18T08:31:09.935Z,19.11
2022-12-18T08:33:39.203Z,19.15
2022-12-18T08:36:07.361Z,19.17
2022-12-18T08:38:34.777Z,19.22
2022-12-18T08:41:04.077Z,19.25
2022-12-18T08:43:49.575Z,19.32
2022-12-18T08:46:16.835Z,19.41
2022-12-18T08:48:44.947Z,19.51
2022-12-18T08:51:12.284Z,19.59
2022-12-18T08:53:40.163Z,19.61
2022-12-18T08:56:07.864Z,19.66
2022-12-18T08:58:35.067Z,19.72
2022-12-18T09:01:03.757Z,19.82
2022-12-18T09:03:30.924Z,19.90
2022-12-18T09:05:58.136Z,19.96
2022-12-18T09:08:25.157Z,20.01
2022-12-18T09:10:52.734Z,20.09
2022-12-18T09:13:20.189Z,20.15
2022-12-18T09:15:50.078Z,20.15
2022-12-18T09:18:19.349Z,20.20
2022-12-18T09:20:47.191Z,20.23
2022-12-18T09:23:14.824Z,20.29
2022-12-18T09:25:42.074Z,20.31
2022-12-18T09:28:15.803Z,20.34
2022-12-18T09:30:47.565Z,20.34
2022-12-18T09:33:15.022Z,20.39
2022-12-18T09:35:43.622Z,20.45
2022-12-18T09:38:15.069Z,20.49
2022-12-18T09:40:55.165Z,20.55
2022-12-18T09:43:29.635Z,20.57
2022-12-18T09:46:13.313Z,20.60
2022-12-18T09:48:59.254Z,20.59
2022-12-18T09:51:59.220Z,20.58
2022-12-18T09:54:50.115Z,20.57
2022-12-18T09:57:21.936Z,20.51
2022-12-18T09:59:56.709Z,20.47
2022-12-18T10:02:28.100Z,20.43
2022-12-18T10:05:18.241Z,20.39
2022-12-18T10:07:57.513Z,20.38
2022-12-18T10:10:35.170Z,20.35
2022-12-18T10:13:48.811Z,20.37
2022-12-18T10:16:40.540Z,20.35
2022-12-18T10:19:39.199Z,20.35
2022-12-18T10:22:36.372Z,20.38
2022-12-18T10:25:07.369Z,20.38
2022-12-18T10:27:34.541Z,20.39
2022-12-18T10:30:05.942Z,20.43
2022-12-18T10:32:34.486Z,20.43
2022-12-18T10:35:01.506Z,20.44
2022-12-18T10:37:31.135Z,20.44
2022-12-18T10:40:21.484Z,20.42
2022-12-18T10:43:05.679Z,20.44
2022-12-18T10:45:32.879Z,20.39
2022-12-18T10:48:00.242Z,20.39
2022-12-18T10:51:08.628Z,20.44
2022-12-18T10:53:24.392Z,20.43
2022-12-18T10:55:53.726Z,20.49
2022-12-18T10:58:34.673Z,20.48
2022-12-18T11:01:09.474Z,20.41
2022-12-18T11:03:42.416Z,20.35
2022-12-18T11:06:12.595Z,20.33
2022-12-18T11:08:42.311Z,20.33
2022-12-18T11:11:24.047Z,20.34
2022-12-18T11:14:16.665Z,20.38
2022-12-18T11:17:23.938Z,20.41
2022-12-18T11:19:42.181Z,20.44
2022-12-18T11:22:22.684Z,20.43
2022-12-18T11:27:57.250Z,20.60
2022-12-18T11:30:27.049Z,20.65
2022-12-18T11:33:16.089Z,20.74
2022-12-18T11:35:46.234Z,20.78
2022-12-18T11:38:19.701Z,20.78
2022-12-18T11:40:52.876Z,20.73
2022-12-18T11:43:33.335Z,20.70
2022-12-18T11:46:06.825Z,20.76
2022-12-18T11:48:55.697Z,20.73
2022-12-18T11:51:30.607Z,20.77
2022-12-18T11:53:57.990Z,20.77
2022-12-18T11:56:36.336Z,20.85
2022-12-18T11:59:21.814Z,20.84
2022-12-18T12:01:54.996Z,20.87
2022-12-18T12:04:48.077Z,20.90
2022-12-18T12:07:38.372Z,20.91
2022-12-18T12:10:35.979Z,20.95
2022-12-18T12:13:21.161Z,21.03
2022-12-18T12:16:06.181Z,21.06
2022-12-18T12:19:02.465Z,21.16
2022-12-18T12:21:42.059Z,21.18
2022-12-18T12:24:33.899Z,21.25
2022-12-18T12:27:26.409Z,21.26
2022-12-18T12:29:53.396Z,21.28
2022-12-18T12:32:49.887Z,21.26
2022-12-18T12:35:54.472Z,21.28
2022-12-18T12:38:26.725Z,21.30
2022-12-18T12:41:03.936Z,21.32
2022-12-18T12:43:50.248Z,21.39
2022-12-18T12:46:22.158Z,21.39
2022-12-18T12:49:02.473Z,21.41
2022-12-18T12:51:34.170Z,21.36
2022-12-18T12:54:04.058Z,21.30
2022-12-18T12:56:46.464Z,21.36
2022-12-18T12:59:28.607Z,21.45
2022-12-18T13:02:24.624Z,21.48
2022-12-18T13:05:22.767Z,21.51
2022-12-18T13:08:04.592Z,21.51
2022-12-18T13:10:35.908Z,21.52
2022-12-18T13:13:05.732Z,21.60
2022-12-18T13:16:05.848Z,21.68
2022-12-18T13:18:34.681Z,21.68
2022-12-18T13:21:03.569Z,21.70
2022-12-18T13:23:40.755Z,21.75
2022-12-18T13:26:09.363Z,21.78
2022-12-18T13:28:48.390Z,21.82
2022-12-18T13:31:31.278Z,21.84
2022-12-18T13:34:28.259Z,21.88
2022-12-18T13:36:58.786Z,21.81
2022-12-18T13:39:35.987Z,21.76
2022-12-18T13:42:07.242Z,21.81
2022-12-18T13:44:42.067Z,21.83
2022-12-18T13:47:36.521Z,21.87
2022-12-18T13:50:10.785Z,21.88
2022-12-18T13:52:39.612Z,21.85
2022-12-18T13:55:16.578Z,21.87
2022-12-18T13:57:43.630Z,21.83
2022-12-18T14:00:35.221Z,21.88
2022-12-18T14:03:02.558Z,21.87
2022-12-18T14:05:36.267Z,21.77
2022-12-18T14:08:17.392Z,21.82
2022-12-18T14:10:50.249Z,21.82
2022-12-18T14:13:21.264Z,21.85
2022-12-18T14:15:50.392Z,21.87
2022-12-18T14:18:53.705Z,21.91
2022-12-18T14:21:25.468Z,21.89
2022-12-18T14:24:24.891Z,21.99
2022-12-18T14:26:53.027Z,21.95
2022-12-18T14:29:24.587Z,21.95
2022-12-18T14:32:18.306Z,22.04
2022-12-18T14:34:46.580Z,22.00
2022-12-18T14:37:16.415Z,21.96
2022-12-18T14:40:03.245Z,22.06
2022-12-18T14:42:35.041Z,22.00
2022-12-18T14:45:42.544Z,22.01
2022-12-18T14:48:13.354Z,22.12
2022-12-18T14:50:41.767Z,22.14
2022-12-18T14:53:24.028Z,22.20
2022-12-18T14:55:52.091Z,22.25
2022-12-18T14:58:20.010Z,22.12
2022-12-18T15:00:47.170Z,22.15
2022-12-18T15:03:22.360Z,22.26
2022-12-18T15:05:50.284Z,22.33
2022-12-18T15:08:37.390Z,22.38
2022-12-18T15:11:08.977Z,22.46
2022-12-18T15:13:44.599Z,22.48
2022-12-18T15:16:14.075Z,22.36
2022-12-18T15:18:44.411Z,22.28
2022-12-18T15:21:17.697Z,22.36
2022-12-18T15:24:02.959Z,22.45
2022-12-18T15:26:38.521Z,22.48
2022-12-18T15:29:05.650Z,22.52
2022-12-18T15:31:36.087Z,22.48
2022-12-18T15:34:13.634Z,22.48
2022-12-18T15:36:41.359Z,22.46
2022-12-18T15:39:11.600Z,22.46
2022-12-18T15:41:39.054Z,22.37
2022-12-18T15:44:24.436Z,22.30
2022-12-18T15:46:51.602Z,22.31
2022-12-18T15:49:18.701Z,22.32
2022-12-18T15:51:47.182Z,22.38
2022-12-18T15:54:17.451Z,22.39
2022-12-18T15:57:02.863Z,22.40
2022-12-18T15:59:29.983Z,22.33
2022-12-18T16:01:57.975Z,22.31
2022-12-18T16:04:25.954Z,22.33
2022-12-18T16:09:40.203Z,22.48
2022-12-18T16:12:13.460Z,22.51
2022-12-18T16:14:40.482Z,22.44
2022-12-18T16:17:11.896Z,22.30
2022-12-18T16:19:38.937Z,22.19
2022-12-18T16:22:06.589Z,22.25
2022-12-18T16:24:37.357Z,22.31
2022-12-18T16:27:04.797Z,22.29
2022-12-18T16:29:31.941Z,22.29
2022-12-18T16:32:00.921Z,22.27
2022-12-18T16:34:35.672Z,22.28
2022-12-18T16:37:06.627Z,22.45
2022-12-18T16:39:35.949Z,22.57
2022-12-18T16:42:05.716Z,22.69
2022-12-18T16:44:34.360Z,22.75
2022-12-18T16:47:03.391Z,22.81
2022-12-18T16:49:31.016Z,22.86
2022-12-18T16:51:58.445Z,22.89
2022-12-18T16:54:25.731Z,22.87
2022-12-18T16:56:52.924Z,22.81
2022-12-18T16:59:20.277Z,22.72
2022-12-18T17:01:47.556Z,22.63
2022-12-18T17:04:15.787Z,22.46
2022-12-18T17:06:45.369Z,22.39
2022-12-18T17:09:15.667Z,22.37
2022-12-18T17:11:43.505Z,22.41
2022-12-18T17:14:19.357Z,22.44
2022-12-18T17:16:49.169Z,22.43
2022-12-18T17:19:18.384Z,22.40
2022-12-18T17:21:48.057Z,22.37
2022-12-18T17:24:15.267Z,22.32
2022-12-18T17:26:42.603Z,22.27
2022-12-18T17:29:14.057Z,22.23
2022-12-18T17:31:41.246Z,22.22
2022-12-18T17:34:09.794Z,22.21
2022-12-18T17:36:37.618Z,22.18
2022-12-18T17:39:06.623Z,22.14
2022-12-18T17:41:34.305Z,22.10
2022-12-18T17:44:06.550Z,22.02
2022-12-18T17:46:34.604Z,21.96
2022-12-18T17:49:03.720Z,21.91
2022-12-18T17:51:30.783Z,21.86
2022-12-18T17:53:58.074Z,21.82
2022-12-18T17:56:25.490Z,21.77
2022-12-18T17:58:52.823Z,21.72
2022-12-18T18:01:23.629Z,21.68
2022-12-18T18:03:51.883Z,21.65
2022-12-18T18:06:21.977Z,21.61
2022-12-18T18:08:49.418Z,21.57
2022-12-18T18:11:37.254Z,21.50
2022-12-18T18:14:08.553Z,21.45
2022-12-18T18:16:39.142Z,21.39
2022-12-18T18:19:09.696Z,21.38
2022-12-18T18:21:40.388Z,21.38
2022-12-18T18:24:10.317Z,21.36
2022-12-18T18:26:38.085Z,21.37
2022-12-18T18:29:07.966Z,21.35
2022-12-18T18:31:40.950Z,21.32
2022-12-18T18:34:12.791Z,21.32
2022-12-18T18:36:39.942Z,21.26
2022-12-18T18:39:07.075Z,21.24
2022-12-18T18:41:36.206Z,21.21
2022-12-18T18:44:03.355Z,21.21
2022-12-18T18:46:30.539Z,21.21
2022-12-18T18:48:57.675Z,21.19
2022-12-18T18:51:25.669Z,21.15
2022-12-18T18:53:54.793Z,21.09
2022-12-18T18:59:11.415Z,20.88
2022-12-18T19:01:39.147Z,20.81
2022-12-18T19:04:06.950Z,20.79
2022-12-18T19:06:34.742Z,20.78
2022-12-18T19:09:02.841Z,20.77
2022-12-18T19:11:48.924Z,20.74
2022-12-18T19:14:16.557Z,20.75
2022-12-18T19:16:48.363Z,20.75
2022-12-18T19:19:19.932Z,20.74
2022-12-18T19:21:47.651Z,20.74
2022-12-18T19:24:14.655Z,20.74
2022-12-18T19:26:41.840Z,20.74
2022-12-18T19:29:11.460Z,20.73
2022-12-18T19:31:38.868Z,20.75
2022-12-18T19:34:07.699Z,20.76
2022-12-18T19:36:37.938Z,20.77
2022-12-18T19:39:16.928Z,20.76
2022-12-18T19:41:44.794Z,20.74
2022-12-18T19:44:14.047Z,20.73
2022-12-18T19:46:42.613Z,20.77
2022-12-18T19:49:11.107Z,20.82
2022-12-18T19:51:38.541Z,20.83
2022-12-18T19:54:05.977Z,20.86
2022-12-18T19:56:35.165Z,20.88
2022-12-18T19:59:04.400Z,20.86
2022-12-18T20:01:31.992Z,20.85
2022-12-18T20:04:01.185Z,20.87
2022-12-18T20:06:33.199Z,20.90
2022-12-18T20:09:03.732Z,20.92
2022-12-18T20:11:31.212Z,20.96
2022-12-18T20:13:58.784Z,20.99
2022-12-18T20:16:25.964Z,21.02
2022-12-18T20:18:53.878Z,21.03
2022-12-18T20:21:20.919Z,20.97
2022-12-18T20:23:48.057Z,20.92
2022-12-18T20:26:15.323Z,20.87
2022-12-18T20:28:42.818Z,20.85
2022-12-18T20:31:13.743Z,20.83
2022-12-18T20:33:42.603Z,20.77
2022-12-18T20:36:14.454Z,20.70
2022-12-18T20:38:42.759Z,20.67
2022-12-18T20:41:12.196Z,20.66
2022-12-18T20:43:39.904Z,20.65
2022-12-18T20:46:09.963Z,20.68
2022-12-18T20:48:37.680Z,20.67
2022-12-18T20:51:08.023Z,20.68
2022-12-18T20:53:36.208Z,20.69
2022-12-18T20:56:10.091Z,20.71
2022-12-18T20:58:37.217Z,20.73
2022-12-18T21:01:07.114Z,20.76
2022-12-18T21:03:34.357Z,20.74
2022-12-18T21:06:01.399Z,20.70
2022-12-18T21:08:28.559Z,20.69
2022-12-18T21:10:56.123Z,20.67
2022-12-18T21:13:23.394Z,20.70
2022-12-18T21:15:54.337Z,20.73
2022-12-18T21:18:21.383Z,20.71
2022-12-18T21:20:48.418Z,20.71
2022-12-18T21:23:17.081Z,20.71
2022-12-18T21:25:45.661Z,20.72
2022-12-18T21:28:13.929Z,20.68
2022-12-18T21:30:41.206Z,20.67
2022-12-18T21:33:08.240Z,20.63
2022-12-18T21:35:36.463Z,20.57
2022-12-18T21:38:05.827Z,20.54
2022-12-18T21:40:33.129Z,20.56
2022-12-18T21:43:18.630Z,20.55
2022-12-18T21:45:45.797Z,20.51
2022-12-18T21:48:12.828Z,20.54
2022-12-18T21:50:39.868Z,20.56
2022-12-18T21:53:07.051Z,20.58
2022-12-18T21:55:34.205Z,20.58
2022-12-18T21:58:01.232Z,20.53
2022-12-18T22:00:28.362Z,20.47
2022-12-18T22:03:16.886Z,20.43
2022-12-18T22:05:42.390Z,20.40
2022-12-18T22:08:09.565Z,20.43
2022-12-18T22:10:38.053Z,20.43
2022-12-18T22:13:06.579Z,20.44
2022-12-18T22:15:34.218Z,20.41
2022-12-18T22:18:01.351Z,20.43
2022-12-18T22:20:30.000Z,20.45
2022-12-18T22:22:57.704Z,20.48
2022-12-18T22:25:24.733Z,20.49
2022-12-18T22:28:10.534Z,20.50
2022-12-18T22:30:37.590Z,20.51
2022-12-18T22:33:05.148Z,20.51
2022-12-18T22:35:32.277Z,20.54
2022-12-18T22:38:00.446Z,20.54
2022-12-18T22:40:28.669Z,20.50
2022-12-18T22:42:56.390Z,20.45
2022-12-18T22:45:24.743Z,20.44
2022-12-18T22:47:52.096Z,20.40
2022-12-18T22:50:19.268Z,20.40
2022-12-18T22:52:46.299Z,20.41
2022-12-18T22:55:13.425Z,20.39
2022-12-18T22:57:40.679Z,20.36
2022-12-18T23:00:11.619Z,20.35
2022-12-18T23:02:38.811Z,20.33
2022-12-18T23:05:06.517Z,20.34
2022-12-18T23:07:33.516Z,20.31
2022-12-18T23:10:00.977Z,20.30
2022-12-18T23:12:28.490Z,20.27
2022-12-18T23:14:55.531Z,20.23
2022-12-18T23:17:22.597Z,20.26
2022-12-18T23:19:49.680Z,20.25
2022-12-18T23:22:17.519Z,20.25
2022-12-18T23:24:44.873Z,20.23
2022-12-18T23:27:12.295Z,20.20
2022-12-18T23:29:40.309Z,20.18
2022-12-18T23:32:08.541Z,20.20
2022-12-18T23:34:35.611Z,20.21
2022-12-18T23:37:04.037Z,20.14
2022-12-18T23:39:31.314Z,20.13
2022-12-18T23:42:01.756Z,20.07
2022-12-18T23:44:29.037Z,20.03
2022-12-18T23:46:56.457Z,20.03
2022-12-18T23:49:23.697Z,20.03
2022-12-18T23:51:50.829Z,20.02
2022-12-18T23:54:28.397Z,20.03
2022-12-18T23:57:00.619Z,20.01
2022-12-18T23:59:28.064Z,19.98
